createdAt,value
2023-03-02T00:00:22.114Z,1.00
2023-03-02T00:02:52.399Z,0.99
2023-03-02T00:05:24.557Z,1.01
2023-03-02T00:07:57.383Z,0.97
2023-03-02T00:10:28.177Z,1.00
2023-03-02T00:12:58.187Z,0.94
2023-03-02T00:15:28.416Z,0.89
2023-03-02T00:17:59.678Z,0.89
2023-03-02T00:20:31.667Z,0.76
2023-03-02T00:23:07.458Z,0.81
2023-03-02T00:25:40.269Z,0.74
2023-03-02T00:28:12.523Z,0.73
2023-03-02T00:30:44.502Z,0.70
2023-03-02T00:33:15.931Z,0.71
2023-03-02T00:35:45.938Z,0.72
2023-03-02T00:38:19.117Z,0.76
2023-03-02T00:40:50.281Z,0.78
2023-03-02T00:43:22.913Z,0.77
2023-03-02T00:45:53.257Z,0.78
2023-03-02T00:48:23.348Z,0.77
2023-03-02T00:50:54.176Z,0.74
2023-03-02T00:53:26.983Z,0.73
2023-03-02T00:55:58.123Z,0.72
2023-03-02T00:58:29.762Z,0.75
2023-03-02T01:01:01.458Z,0.74
2023-03-02T01:03:31.508Z,0.63
2023-03-02T01:06:01.600Z,0.70
2023-03-02T01:08:37.221Z,0.70
2023-03-02T01:11:15.132Z,0.66
2023-03-02T01:13:45.047Z,0.68
2023-03-02T01:16:15.437Z,0.67
2023-03-02T01:18:46.190Z,0.66
2023-03-02T01:21:19.224Z,0.60
2023-03-02T01:23:52.659Z,0.65
2023-03-02T01:26:22.849Z,0.62
2023-03-02T01:28:55.561Z,0.64
2023-03-02T01:31:25.867Z,0.55
2023-03-02T01:33:57.296Z,0.56
2023-03-02T01:36:27.743Z,0.53
2023-03-02T01:39:00.597Z,0.59
2023-03-02T01:41:31.221Z,0.59
2023-03-02T01:44:01.776Z,0.58
2023-03-02T01:46:36.246Z,0.61
2023-03-02T01:49:10.825Z,0.65
2023-03-02T01:51:58.479Z,0.75
2023-03-02T01:54:33.488Z,0.76
2023-03-02T01:57:10.716Z,0.76
2023-03-02T01:59:45.650Z,0.76
2023-03-02T02:02:16.200Z,0.77
2023-03-02T02:04:51.950Z,0.72
2023-03-02T02:07:22.125Z,0.85
2023-03-02T02:09:57.180Z,0.83
2023-03-02T02:12:27.394Z,0.84
2023-03-02T02:15:00.851Z,0.80
2023-03-02T02:17:32.789Z,0.77
2023-03-02T02:20:13.117Z,0.75
2023-03-02T02:22:56.118Z,0.68
2023-03-02T02:25:47.197Z,0.70
2023-03-02T02:28:28.542Z,0.70
2023-03-02T02:31:09.074Z,0.63
2023-03-02T02:33:43.550Z,0.66
2023-03-02T02:36:21.412Z,0.69
2023-03-02T02:38:58.491Z,0.63
2023-03-02T02:41:33.676Z,0.66
2023-03-02T02:44:06.585Z,0.60
2023-03-02T02:46:36.863Z,0.53
2023-03-02T02:49:20.189Z,0.56
2023-03-02T02:51:51.754Z,0.60
2023-03-02T02:54:22.569Z,0.46
2023-03-02T02:56:56.099Z,0.53
2023-03-02T02:59:35.990Z,0.46
2023-03-02T03:02:06.550Z,0.44
2023-03-02T03:04:36.683Z,0.43
2023-03-02T03:07:09.894Z,0.44
2023-03-02T03:09:40.718Z,0.43
2023-03-02T03:12:18.486Z,0.34
2023-03-02T03:14:53.091Z,0.37
2023-03-02T03:17:23.555Z,0.30
2023-03-02T03:20:06.865Z,0.28
2023-03-02T03:22:41.555Z,0.19
2023-03-02T03:25:15.588Z,0.30
2023-03-02T03:27:49.007Z,0.30
2023-03-02T03:30:22.805Z,0.29
2023-03-02T03:32:53.452Z,0.22
2023-03-02T03:35:23.449Z,0.29
2023-03-02T03:37:55.229Z,0.26
2023-03-02T03:40:25.521Z,0.29
2023-03-02T03:42:55.966Z,0.34
2023-03-02T03:45:30.478Z,0.24
2023-03-02T03:48:01.793Z,0.26
2023-03-02T03:50:32.667Z,0.29
2023-03-02T03:53:03.923Z,0.31
2023-03-02T03:55:34.700Z,0.29
2023-03-02T03:58:05.809Z,0.27
2023-03-02T04:00:39.135Z,0.24
2023-03-02T04:03:12.874Z,0.23
2023-03-02T04:05:43.537Z,0.14
2023-03-02T04:08:14.308Z,0.21
2023-03-02T04:10:44.257Z,0.18
2023-03-02T04:13:15.327Z,0.20
2023-03-02T04:15:49.828Z,0.21
2023-03-02T04:18:24.105Z,0.18
2023-03-02T04:20:54.285Z,0.13
2023-03-02T04:23:24.425Z,0.14
2023-03-02T04:25:54.492Z,0.14
2023-03-02T04:28:26.376Z,0.12
2023-03-02T04:30:59.015Z,0.13
2023-03-02T04:33:29.166Z,0.14
2023-03-02T04:35:59.671Z,0.16
2023-03-02T04:38:30.628Z,0.16
2023-03-02T04:41:02.384Z,0.20
2023-03-02T04:43:32.677Z,0.22
2023-03-02T04:46:05.187Z,0.25
2023-03-02T04:48:35.506Z,0.19
2023-03-02T04:51:07.384Z,0.28
2023-03-02T04:53:39.390Z,0.24
2023-03-02T04:56:10.657Z,0.24
2023-03-02T04:58:43.249Z,0.30
2023-03-02T05:01:17.376Z,0.30
2023-03-02T05:03:47.401Z,0.30
2023-03-02T05:06:18.015Z,0.35
2023-03-02T05:08:48.634Z,0.42
2023-03-02T05:11:22.590Z,0.39
2023-03-02T05:13:53.702Z,0.42
2023-03-02T05:16:29.448Z,0.42
2023-03-02T05:18:59.509Z,0.36
2023-03-02T05:21:30.577Z,0.35
2023-03-02T05:24:00.976Z,0.38
2023-03-02T05:26:31.968Z,0.31
2023-03-02T05:29:02.672Z,0.27
2023-03-02T05:31:38.264Z,0.24
2023-03-02T05:34:11.391Z,0.22
2023-03-02T05:36:42.733Z,0.20
2023-03-02T05:39:13.273Z,0.24
2023-03-02T05:41:44.344Z,0.63
2023-03-02T05:44:14.876Z,1.26
2023-03-02T05:46:47.732Z,1.45
2023-03-02T05:49:18.728Z,1.16
2023-03-02T05:51:49.102Z,0.84
2023-03-02T05:54:19.088Z,0.57
2023-03-02T05:56:50.396Z,0.52
2023-03-02T05:59:20.421Z,0.47
2023-03-02T06:01:59.310Z,0.36
2023-03-02T06:04:29.587Z,0.34
2023-03-02T06:07:00.664Z,0.37
2023-03-02T06:09:32.191Z,0.43
2023-03-02T06:12:02.808Z,0.35
2023-03-02T06:14:32.727Z,0.49
2023-03-02T06:17:05.820Z,0.71
2023-03-02T06:19:37.394Z,0.84
2023-03-02T06:22:08.580Z,1.02
2023-03-02T06:24:40.271Z,1.38
2023-03-02T06:27:10.545Z,1.54
2023-03-02T06:29:41.452Z,1.78
2023-03-02T06:32:14.257Z,2.12
2023-03-02T06:34:45.296Z,2.07
2023-03-02T06:37:15.199Z,2.38
2023-03-02T06:39:45.956Z,2.45
2023-03-02T06:42:16.249Z,2.93
2023-03-02T06:44:46.446Z,2.68
2023-03-02T06:47:19.836Z,3.14
2023-03-02T06:49:49.994Z,3.24
2023-03-02T06:52:21.433Z,3.67
2023-03-02T06:54:51.312Z,3.95
2023-03-02T06:57:21.904Z,4.35
2023-03-02T06:59:52.604Z,4.69
2023-03-02T07:02:26.022Z,4.82
2023-03-02T07:04:56.713Z,5.10
2023-03-02T07:07:26.628Z,5.53
2023-03-02T07:09:57.348Z,5.51
2023-03-02T07:12:27.834Z,5.68
2023-03-02T07:14:58.365Z,5.89
2023-03-02T07:17:30.946Z,6.01
2023-03-02T07:20:01.713Z,6.44
2023-03-02T07:22:31.596Z,7.16
2023-03-02T07:25:02.273Z,6.81
2023-03-02T07:27:32.193Z,7.13
2023-03-02T07:30:03.570Z,7.26
2023-03-02T07:32:36.332Z,7.57
2023-03-02T07:35:07.030Z,7.74
2023-03-02T07:37:37.372Z,8.20
2023-03-02T07:40:09.573Z,10.08
2023-03-02T07:42:40.005Z,10.28
2023-03-02T07:45:11.524Z,10.34
2023-03-02T07:47:44.607Z,10.38
2023-03-02T07:50:15.140Z,10.56
2023-03-02T07:52:46.191Z,10.37
2023-03-02T07:55:16.085Z,10.25
2023-03-02T07:57:46.801Z,10.05
2023-03-02T08:00:18.686Z,9.03
2023-03-02T08:02:52.034Z,8.74
2023-03-02T08:05:22.072Z,8.33
2023-03-02T08:07:52.529Z,8.89
2023-03-02T08:10:23.099Z,8.94
2023-03-02T08:12:53.927Z,9.37
2023-03-02T08:15:24.549Z,9.24
2023-03-02T08:17:57.674Z,9.28
2023-03-02T08:20:27.666Z,10.08
2023-03-02T08:22:58.662Z,9.19
2023-03-02T08:25:29.004Z,9.17
2023-03-02T08:27:59.788Z,8.80
2023-03-02T08:30:29.639Z,8.90
2023-03-02T08:33:06.675Z,9.64
2023-03-02T08:35:37.209Z,9.94
2023-03-02T08:38:07.951Z,9.73
2023-03-02T08:40:37.867Z,9.85
2023-03-02T08:43:08.622Z,9.91
2023-03-02T08:45:38.525Z,10.29
2023-03-02T08:48:12.072Z,9.62
2023-03-02T08:50:42.306Z,9.46
2023-03-02T08:53:12.819Z,9.35
2023-03-02T08:55:42.682Z,10.53
2023-03-02T08:58:13.504Z,10.76
2023-03-02T09:00:43.937Z,9.85
2023-03-02T09:03:16.912Z,10.34
2023-03-02T09:05:47.681Z,11.67
2023-03-02T09:08:18.078Z,11.58
2023-03-02T09:10:48.561Z,13.13
2023-03-02T09:13:18.413Z,14.27
2023-03-02T09:15:49.099Z,14.97
2023-03-02T09:18:21.540Z,15.40
2023-03-02T09:20:53.637Z,16.07
2023-03-02T09:23:23.786Z,16.60
2023-03-02T09:25:55.364Z,17.36
2023-03-02T09:28:26.031Z,17.68
2023-03-02T09:31:00.812Z,17.94
2023-03-02T09:33:34.693Z,18.63
2023-03-02T09:36:10.080Z,19.20
2023-03-02T09:38:40.119Z,19.45
2023-03-02T09:41:35.744Z,19.56
2023-03-02T09:44:27.241Z,20.79
2023-03-02T09:47:03.955Z,18.60
2023-03-02T09:49:55.963Z,19.00
2023-03-02T09:52:35.122Z,20.45
2023-03-02T09:55:18.265Z,21.33
2023-03-02T09:57:50.661Z,21.45
2023-03-02T10:00:31.579Z,21.51
2023-03-02T10:03:16.657Z,21.82
2023-03-02T10:05:54.095Z,21.65
2023-03-02T10:08:28.084Z,21.77
2023-03-02T10:11:08.583Z,21.90
2023-03-02T10:13:47.771Z,21.72
2023-03-02T10:16:30.518Z,19.88
2023-03-02T10:19:11.252Z,20.23
2023-03-02T10:21:50.818Z,21.17
2023-03-02T10:24:33.403Z,21.86
2023-03-02T10:27:18.123Z,22.22
2023-03-02T10:29:58.802Z,22.35
2023-03-02T10:32:34.866Z,22.38
2023-03-02T10:35:17.301Z,22.63
2023-03-02T10:37:50.805Z,22.65
2023-03-02T10:40:41.440Z,21.12
2023-03-02T10:43:21.059Z,21.12
2023-03-02T10:46:02.114Z,21.63
2023-03-02T10:48:33.413Z,21.57
2023-03-02T10:51:03.720Z,19.65
2023-03-02T10:53:37.041Z,20.93
2023-03-02T10:56:09.261Z,21.23
2023-03-02T10:58:39.410Z,20.79
2023-03-02T11:01:20.349Z,20.65
2023-03-02T11:03:59.102Z,21.26
2023-03-02T11:06:31.996Z,20.99
2023-03-02T11:09:08.835Z,19.80
2023-03-02T11:11:40.016Z,19.95
2023-03-02T11:14:18.619Z,19.30
2023-03-02T11:16:51.402Z,18.80
2023-03-02T11:19:37.531Z,18.78
2023-03-02T11:22:35.852Z,18.33
2023-03-02T11:25:17.774Z,16.85
2023-03-02T11:27:49.842Z,16.59
2023-03-02T11:30:27.713Z,15.83
2023-03-02T11:33:06.527Z,15.64
2023-03-02T11:35:46.046Z,14.39
2023-03-02T11:38:22.610Z,13.97
2023-03-02T11:41:01.639Z,13.71
2023-03-02T11:43:31.627Z,13.87
2023-03-02T11:46:13.957Z,14.11
2023-03-02T11:48:56.096Z,14.32
2023-03-02T11:51:31.271Z,14.43
2023-03-02T11:54:06.980Z,13.73
2023-03-02T11:56:42.585Z,13.55
2023-03-02T11:59:21.715Z,13.78
2023-03-02T12:01:57.094Z,13.98
2023-03-02T12:04:35.994Z,12.90
2023-03-02T12:07:21.170Z,13.20
2023-03-02T12:10:02.123Z,13.16
2023-03-02T12:13:01.684Z,12.72
2023-03-02T12:15:41.010Z,12.35
2023-03-02T12:18:41.767Z,12.28
2023-03-02T12:21:14.903Z,12.32
2023-03-02T12:23:59.253Z,12.07
2023-03-02T12:26:39.344Z,12.26
2023-03-02T12:29:26.921Z,12.07
2023-03-02T12:31:59.715Z,12.02
2023-03-02T12:34:39.908Z,12.08
2023-03-02T12:37:19.788Z,11.71
2023-03-02T12:40:23.093Z,11.94
2023-03-02T12:43:22.866Z,11.76
2023-03-02T12:46:23.059Z,11.90
2023-03-02T12:49:06.647Z,11.86
2023-03-02T12:51:52.747Z,11.31
2023-03-02T12:54:26.136Z,11.35
2023-03-02T12:57:10.361Z,11.61
2023-03-02T12:59:41.080Z,11.51
2023-03-02T13:02:22.505Z,11.67
2023-03-02T13:04:57.626Z,11.75
2023-03-02T13:07:31.150Z,11.72
2023-03-02T13:10:02.883Z,11.56
2023-03-02T13:12:33.908Z,11.53
2023-03-02T13:15:04.945Z,11.52
2023-03-02T13:17:37.414Z,11.49
2023-03-02T13:20:09.613Z,11.68
2023-03-02T13:22:40.544Z,11.81
2023-03-02T13:25:27.988Z,11.65
2023-03-02T13:28:01.237Z,11.58
2023-03-02T13:30:35.092Z,11.60
2023-03-02T13:33:24.550Z,11.54
2023-03-02T13:35:56.224Z,11.45
2023-03-02T13:38:29.210Z,11.37
2023-03-02T13:41:00.013Z,11.32
2023-03-02T13:43:40.796Z,11.16
2023-03-02T13:46:30.594Z,11.16
2023-03-02T13:49:10.760Z,11.31
2023-03-02T13:51:45.815Z,11.12
2023-03-02T13:54:24.427Z,11.24
2023-03-02T13:56:56.672Z,11.46
2023-03-02T13:59:26.953Z,11.07
2023-03-02T14:01:58.308Z,10.87
2023-03-02T14:04:30.951Z,10.82
2023-03-02T14:07:01.643Z,10.86
2023-03-02T14:09:31.631Z,11.05
2023-03-02T14:12:02.153Z,10.85
2023-03-02T14:14:40.158Z,10.95
2023-03-02T14:17:18.314Z,10.82
2023-03-02T14:19:52.950Z,10.82
2023-03-02T14:22:23.319Z,10.66
2023-03-02T14:24:53.660Z,10.69
2023-03-02T14:27:26.000Z,10.64
2023-03-02T14:29:59.176Z,10.43
2023-03-02T14:32:31.449Z,10.43
2023-03-02T14:35:04.566Z,10.34
2023-03-02T14:37:34.535Z,10.24
2023-03-02T14:40:06.440Z,10.20
2023-03-02T14:42:37.053Z,10.17
2023-03-02T14:45:07.650Z,10.17
2023-03-02T14:47:37.510Z,10.26
2023-03-02T14:50:11.558Z,9.80
2023-03-02T14:52:46.259Z,9.88
2023-03-02T14:55:23.743Z,10.26
2023-03-02T14:57:57.302Z,10.27
2023-03-02T15:00:31.664Z,10.12
2023-03-02T15:03:01.751Z,10.02
2023-03-02T15:05:34.765Z,10.14
2023-03-02T15:08:04.985Z,10.23
2023-03-02T15:10:35.138Z,10.02
2023-03-02T15:13:05.083Z,9.92
2023-03-02T15:15:35.377Z,9.84
2023-03-02T15:18:05.342Z,9.85
2023-03-02T15:20:38.340Z,9.64
2023-03-02T15:23:08.330Z,9.62
2023-03-02T15:25:38.580Z,9.40
2023-03-02T15:28:09.305Z,9.09
2023-03-02T15:30:39.323Z,8.88
2023-03-02T15:33:09.321Z,8.82
2023-03-02T15:35:42.843Z,8.86
2023-03-02T15:38:12.894Z,8.72
2023-03-02T15:40:43.601Z,8.49
2023-03-02T15:43:13.638Z,8.43
2023-03-02T15:45:47.959Z,8.38
2023-03-02T15:48:19.132Z,7.72
2023-03-02T15:51:01.240Z,8.03
2023-03-02T15:53:32.514Z,7.96
2023-03-02T15:56:02.900Z,7.94
2023-03-02T15:58:33.881Z,7.77
2023-03-02T16:01:11.332Z,7.68
2023-03-02T16:03:41.428Z,7.59
2023-03-02T16:06:15.852Z,7.49
2023-03-02T16:08:45.744Z,7.45
2023-03-02T16:11:19.318Z,7.37
2023-03-02T16:13:49.280Z,7.20
2023-03-02T16:16:19.345Z,7.01
2023-03-02T16:18:52.807Z,6.93
2023-03-02T16:21:27.167Z,6.89
2023-03-02T16:24:03.338Z,6.77
2023-03-02T16:26:34.743Z,6.67
2023-03-02T16:29:05.565Z,6.59
2023-03-02T16:31:37.825Z,6.50
2023-03-02T16:34:10.684Z,6.34
2023-03-02T16:36:45.308Z,6.31
2023-03-02T16:39:16.947Z,6.24
2023-03-02T16:41:48.731Z,6.07
2023-03-02T16:44:19.311Z,6.01
2023-03-02T16:46:51.626Z,5.94
2023-03-02T16:49:21.669Z,5.82
2023-03-02T16:51:59.666Z,5.75
2023-03-02T16:54:29.559Z,5.73
2023-03-02T16:56:59.460Z,5.63
2023-03-02T16:59:31.408Z,5.54
2023-03-02T17:02:01.689Z,5.43
2023-03-02T17:04:34.865Z,5.37
2023-03-02T17:07:08.490Z,5.26
2023-03-02T17:09:41.428Z,5.18
2023-03-02T17:12:11.760Z,5.14
2023-03-02T17:14:41.625Z,5.13
2023-03-02T17:17:11.602Z,5.07
2023-03-02T17:19:41.439Z,4.95
2023-03-02T17:22:14.474Z,4.95
2023-03-02T17:24:44.414Z,4.85
2023-03-02T17:27:24.488Z,4.78
2023-03-02T17:29:55.095Z,4.71
2023-03-02T17:32:26.725Z,4.60
2023-03-02T17:34:56.742Z,4.61
2023-03-02T17:37:30.469Z,4.55
2023-03-02T17:40:00.396Z,4.50
2023-03-02T17:42:30.817Z,4.53
2023-03-02T17:45:00.727Z,4.50
2023-03-02T17:47:30.832Z,4.47
2023-03-02T17:50:01.581Z,4.41
2023-03-02T17:52:34.056Z,4.37
2023-03-02T17:55:03.960Z,4.27
2023-03-02T17:57:33.883Z,4.28
2023-03-02T18:00:04.592Z,4.25
2023-03-02T18:02:34.500Z,4.29
2023-03-02T18:05:04.466Z,4.26
2023-03-02T18:07:36.887Z,4.20
2023-03-02T18:10:09.360Z,4.20
2023-03-02T18:12:39.271Z,4.17
2023-03-02T18:15:11.165Z,4.28
2023-03-02T18:17:41.314Z,4.27
2023-03-02T18:20:13.700Z,4.40
2023-03-02T18:22:46.157Z,4.45
2023-03-02T18:25:16.517Z,4.26
2023-03-02T18:27:46.510Z,4.16
2023-03-02T18:30:17.626Z,4.15
2023-03-02T18:32:47.440Z,4.08
2023-03-02T18:35:17.548Z,4.02
2023-03-02T18:37:50.661Z,3.96
2023-03-02T18:40:20.805Z,3.91
2023-03-02T18:42:52.653Z,3.90
2023-03-02T18:45:27.211Z,3.90
2023-03-02T18:47:57.231Z,3.88
2023-03-02T18:50:28.507Z,3.83
2023-03-02T18:53:01.022Z,3.77
2023-03-02T18:55:30.909Z,3.74
2023-03-02T18:58:01.190Z,3.70
2023-03-02T19:00:31.342Z,3.71
2023-03-02T19:03:01.550Z,3.69
2023-03-02T19:05:31.807Z,3.65
2023-03-02T19:08:04.784Z,3.61
2023-03-02T19:10:35.173Z,3.59
2023-03-02T19:13:05.715Z,3.58
2023-03-02T19:15:37.245Z,3.49
2023-03-02T19:18:07.374Z,3.50
2023-03-02T19:20:37.894Z,3.48
2023-03-02T19:23:10.378Z,3.46
2023-03-02T19:25:40.664Z,3.42
2023-03-02T19:28:12.415Z,3.39
2023-03-02T19:30:43.270Z,3.37
2023-03-02T19:33:13.429Z,3.31
2023-03-02T19:35:44.755Z,3.23
2023-03-02T19:38:18.317Z,3.21
2023-03-02T19:40:49.330Z,3.16
2023-03-02T19:43:20.396Z,3.12
2023-03-02T19:45:50.687Z,3.14
2023-03-02T19:48:22.158Z,3.08
2023-03-02T19:50:53.557Z,3.05
2023-03-02T19:53:26.805Z,3.06
2023-03-02T19:56:02.235Z,3.01
2023-03-02T19:58:33.332Z,3.03
2023-03-02T20:01:05.019Z,3.01
2023-03-02T20:03:34.984Z,2.99
2023-03-02T20:06:05.381Z,2.94
2023-03-02T20:08:39.225Z,2.98
2023-03-02T20:11:09.605Z,2.96
2023-03-02T20:13:40.516Z,2.93
2023-03-02T20:16:11.407Z,2.91
2023-03-02T20:18:41.810Z,2.89
2023-03-02T20:21:11.751Z,2.90
2023-03-02T20:23:44.612Z,2.85
2023-03-02T20:26:15.809Z,2.81
2023-03-02T20:28:46.313Z,2.80
2023-03-02T20:31:19.218Z,2.78
2023-03-02T20:33:52.984Z,2.77
2023-03-02T20:36:28.241Z,2.69
2023-03-02T20:39:04.792Z,2.65
2023-03-02T20:41:36.961Z,2.67
2023-03-02T20:44:07.710Z,2.64
2023-03-02T20:46:42.132Z,2.64
2023-03-02T20:49:16.322Z,2.59
2023-03-02T20:51:52.957Z,2.57
2023-03-02T20:54:29.218Z,2.55
2023-03-02T20:56:59.988Z,2.59
2023-03-02T20:59:31.243Z,2.62
2023-03-02T21:02:01.917Z,2.55
2023-03-02T21:04:33.244Z,2.52
2023-03-02T21:07:03.139Z,2.49
2023-03-02T21:09:36.506Z,2.51
2023-03-02T21:12:09.214Z,2.51
2023-03-02T21:14:39.430Z,2.48
2023-03-02T21:17:12.844Z,2.43
2023-03-02T21:19:42.736Z,2.38
2023-03-02T21:22:12.932Z,2.32
2023-03-02T21:24:45.636Z,2.34
2023-03-02T21:27:15.831Z,2.31
2023-03-02T21:29:45.811Z,2.37
2023-03-02T21:32:16.347Z,2.38
2023-03-02T21:34:46.302Z,2.33
2023-03-02T21:37:17.722Z,2.28
2023-03-02T21:39:50.177Z,2.33
2023-03-02T21:42:21.299Z,2.33
2023-03-02T21:44:51.907Z,2.35
2023-03-02T21:47:21.796Z,2.30
2023-03-02T21:49:51.914Z,2.26
2023-03-02T21:52:21.797Z,2.26
2023-03-02T21:54:54.351Z,2.26
2023-03-02T21:57:24.220Z,2.21
2023-03-02T21:59:54.788Z,2.18
2023-03-02T22:02:24.739Z,2.15
2023-03-02T22:04:54.617Z,2.16
2023-03-02T22:07:24.515Z,2.08
2023-03-02T22:09:57.440Z,2.08
2023-03-02T22:12:27.842Z,2.07
2023-03-02T22:14:59.369Z,2.09
2023-03-02T22:17:29.252Z,2.01
2023-03-02T22:19:59.631Z,1.98
2023-03-02T22:22:32.875Z,1.91
2023-03-02T22:25:05.320Z,1.92
2023-03-02T22:27:35.506Z,1.96
2023-03-02T22:30:18.079Z,1.92
2023-03-02T22:32:48.294Z,1.96
2023-03-02T22:35:24.305Z,1.92
2023-03-02T22:38:02.231Z,1.94
2023-03-02T22:40:37.208Z,1.93
2023-03-02T22:43:18.073Z,1.79
2023-03-02T22:45:47.929Z,1.89
2023-03-02T22:48:20.933Z,1.85
2023-03-02T22:50:53.539Z,1.83
2023-03-02T22:53:28.235Z,1.82
2023-03-02T22:56:03.067Z,1.73
2023-03-02T22:58:45.471Z,1.74
2023-03-02T23:01:24.606Z,1.75
2023-03-02T23:03:57.244Z,1.71
2023-03-02T23:06:31.210Z,1.77
2023-03-02T23:09:03.150Z,1.74
2023-03-02T23:11:40.961Z,1.70
2023-03-02T23:14:21.815Z,1.67
2023-03-02T23:16:56.376Z,1.63
2023-03-02T23:19:28.302Z,1.67
2023-03-02T23:21:58.866Z,1.62
2023-03-02T23:24:29.151Z,1.63
2023-03-02T23:27:06.477Z,1.62
2023-03-02T23:29:36.273Z,1.71
2023-03-02T23:32:07.421Z,1.72
2023-03-02T23:34:37.290Z,1.66
2023-03-02T23:37:07.697Z,1.62
2023-03-02T23:39:37.811Z,1.64
2023-03-02T23:42:10.692Z,1.61
2023-03-02T23:44:40.679Z,1.59
2023-03-02T23:47:10.514Z,1.66
2023-03-02T23:49:40.631Z,1.61
2023-03-02T23:52:10.930Z,1.61
2023-03-02T23:54:42.123Z,1.62
2023-03-02T23:57:14.509Z,1.55
2023-03-02T23:59:45.022Z,1.47
